sensor_id;sensor_type;location;lat;lon;timestamp;temperature;humidity
15930;DHT22;8064;51.142;4.780;2022-08-21T00:02:01;16.30;97.40
15930;DHT22;8064;51.142;4.780;2022-08-21T00:04:26;16.30;97.40
15930;DHT22;8064;51.142;4.780;2022-08-21T00:06:52;16.30;97.50
15930;DHT22;8064;51.142;4.780;2022-08-21T00:09:19;16.30;97.50
15930;DHT22;8064;51.142;4.780;2022-08-21T00:11:46;16.30;97.50
15930;DHT22;8064;51.142;4.780;2022-08-21T00:14:12;16.30;97.50
15930;DHT22;8064;51.142;4.780;2022-08-21T00:16:38;16.20;97.50
15930;DHT22;8064;51.142;4.780;2022-08-21T00:19:05;16.20;97.50
15930;DHT22;8064;51.142;4.780;2022-08-21T00:21:32;16.20;97.50
15930;DHT22;8064;51.142;4.780;2022-08-21T00:23:59;16.20;97.50
15930;DHT22;8064;51.142;4.780;2022-08-21T00:26:25;16.10;97.50
15930;DHT22;8064;51.142;4.780;2022-08-21T00:28:52;16.10;97.60
15930;DHT22;8064;51.142;4.780;2022-08-21T00:31:18;16.00;97.60
15930;DHT22;8064;51.142;4.780;2022-08-21T00:33:44;16.00;97.70
15930;DHT22;8064;51.142;4.780;2022-08-21T00:36:11;16.00;97.80
15930;DHT22;8064;51.142;4.780;2022-08-21T00:38:37;16.00;97.80
15930;DHT22;8064;51.142;4.780;2022-08-21T00:41:05;16.00;97.90
15930;DHT22;8064;51.142;4.780;2022-08-21T00:43:33;16.00;97.90
15930;DHT22;8064;51.142;4.780;2022-08-21T00:46:00;16.00;97.90
15930;DHT22;8064;51.142;4.780;2022-08-21T00:48:26;15.90;97.90
15930;DHT22;8064;51.142;4.780;2022-08-21T00:50:56;15.90;97.90
15930;DHT22;8064;51.142;4.780;2022-08-21T00:53:24;15.80;97.90
15930;DHT22;8064;51.142;4.780;2022-08-21T00:55:51;15.80;98.00
15930;DHT22;8064;51.142;4.780;2022-08-21T00:58:17;15.80;98.20
15930;DHT22;8064;51.142;4.780;2022-08-21T01:00:45;15.80;98.00
15930;DHT22;8064;51.142;4.780;2022-08-21T01:03:15;15.80;98.10
15930;DHT22;8064;51.142;4.780;2022-08-21T01:05:42;15.70;98.10
15930;DHT22;8064;51.142;4.780;2022-08-21T01:08:10;15.70;98.10
15930;DHT22;8064;51.142;4.780;2022-08-21T01:10:36;15.70;98.10
15930;DHT22;8064;51.142;4.780;2022-08-21T01:13:04;15.70;98.20
15930;DHT22;8064;51.142;4.780;2022-08-21T01:15:34;15.70;98.30
15930;DHT22;8064;51.142;4.780;2022-08-21T01:18:03;15.70;98.30
15930;DHT22;8064;51.142;4.780;2022-08-21T01:20:30;15.70;98.30
15930;DHT22;8064;51.142;4.780;2022-08-21T01:22:56;15.60;98.30
15930;DHT22;8064;51.142;4.780;2022-08-21T01:25:21;15.60;98.30
15930;DHT22;8064;51.142;4.780;2022-08-21T01:27:48;15.60;98.30
15930;DHT22;8064;51.142;4.780;2022-08-21T01:30:20;15.60;98.20
15930;DHT22;8064;51.142;4.780;2022-08-21T01:32:46;15.60;98.20
15930;DHT22;8064;51.142;4.780;2022-08-21T01:35:14;15.60;98.20
15930;DHT22;8064;51.142;4.780;2022-08-21T01:37:41;15.50;98.20
15930;DHT22;8064;51.142;4.780;2022-08-21T01:40:08;15.50;98.30
15930;DHT22;8064;51.142;4.780;2022-08-21T01:42:34;15.50;98.30
15930;DHT22;8064;51.142;4.780;2022-08-21T01:45:01;15.50;98.30
15930;DHT22;8064;51.142;4.780;2022-08-21T01:47:26;15.50;98.30
15930;DHT22;8064;51.142;4.780;2022-08-21T01:49:52;15.40;98.30
15930;DHT22;8064;51.142;4.780;2022-08-21T01:52:18;15.40;98.30
15930;DHT22;8064;51.142;4.780;2022-08-21T01:54:44;15.40;98.30
15930;DHT22;8064;51.142;4.780;2022-08-21T01:57:11;15.40;98.40
15930;DHT22;8064;51.142;4.780;2022-08-21T01:59:37;15.30;98.30
15930;DHT22;8064;51.142;4.780;2022-08-21T02:02:04;15.30;98.30
15930;DHT22;8064;51.142;4.780;2022-08-21T02:04:30;15.30;98.30
15930;DHT22;8064;51.142;4.780;2022-08-21T02:06:56;15.30;98.40
15930;DHT22;8064;51.142;4.780;2022-08-21T02:09:22;15.30;98.40
15930;DHT22;8064;51.142;4.780;2022-08-21T02:11:48;15.20;98.30
15930;DHT22;8064;51.142;4.780;2022-08-21T02:14:14;15.20;98.40
15930;DHT22;8064;51.142;4.780;2022-08-21T02:16:42;15.20;98.40
15930;DHT22;8064;51.142;4.780;2022-08-21T02:19:09;15.10;98.40
15930;DHT22;8064;51.142;4.780;2022-08-21T02:21:35;15.10;98.40
15930;DHT22;8064;51.142;4.780;2022-08-21T02:24:01;15.10;98.40
15930;DHT22;8064;51.142;4.780;2022-08-21T02:26:26;15.10;98.40
15930;DHT22;8064;51.142;4.780;2022-08-21T02:28:52;15.10;98.50
15930;DHT22;8064;51.142;4.780;2022-08-21T02:31:18;15.00;98.40
15930;DHT22;8064;51.142;4.780;2022-08-21T02:33:44;15.00;98.50
15930;DHT22;8064;51.142;4.780;2022-08-21T02:36:11;15.00;98.50
15930;DHT22;8064;51.142;4.780;2022-08-21T02:38:38;15.00;98.50
15930;DHT22;8064;51.142;4.780;2022-08-21T02:41:07;15.00;98.50
15930;DHT22;8064;51.142;4.780;2022-08-21T02:43:33;14.90;98.40
15930;DHT22;8064;51.142;4.780;2022-08-21T02:45:59;14.90;98.50
15930;DHT22;8064;51.142;4.780;2022-08-21T02:48:29;14.90;98.50
15930;DHT22;8064;51.142;4.780;2022-08-21T02:50:58;14.80;98.60
15930;DHT22;8064;51.142;4.780;2022-08-21T02:53:25;14.80;98.60
15930;DHT22;8064;51.142;4.780;2022-08-21T02:55:52;14.80;98.60
15930;DHT22;8064;51.142;4.780;2022-08-21T02:58:22;14.80;98.70
15930;DHT22;8064;51.142;4.780;2022-08-21T03:00:49;14.80;99.10
15930;DHT22;8064;51.142;4.780;2022-08-21T03:03:15;14.80;98.80
15930;DHT22;8064;51.142;4.780;2022-08-21T03:05:42;14.70;98.70
15930;DHT22;8064;51.142;4.780;2022-08-21T03:08:10;14.70;98.80
15930;DHT22;8064;51.142;4.780;2022-08-21T03:10:38;14.70;98.80
15930;DHT22;8064;51.142;4.780;2022-08-21T03:13:05;14.70;98.80
15930;DHT22;8064;51.142;4.780;2022-08-21T03:15:31;14.70;98.80
15930;DHT22;8064;51.142;4.780;2022-08-21T03:17:57;14.70;98.80
15930;DHT22;8064;51.142;4.780;2022-08-21T03:20:25;14.60;99.10
15930;DHT22;8064;51.142;4.780;2022-08-21T03:22:51;14.60;98.80
15930;DHT22;8064;51.142;4.780;2022-08-21T03:25:18;14.60;98.80
15930;DHT22;8064;51.142;4.780;2022-08-21T03:27:44;14.60;98.80
15930;DHT22;8064;51.142;4.780;2022-08-21T03:30:11;14.60;98.80
15930;DHT22;8064;51.142;4.780;2022-08-21T03:32:37;14.60;98.90
15930;DHT22;8064;51.142;4.780;2022-08-21T03:35:04;14.60;98.90
15930;DHT22;8064;51.142;4.780;2022-08-21T03:37:30;14.60;98.80
15930;DHT22;8064;51.142;4.780;2022-08-21T03:39:56;14.60;98.80
15930;DHT22;8064;51.142;4.780;2022-08-21T03:42:22;14.50;98.80
15930;DHT22;8064;51.142;4.780;2022-08-21T03:44:48;14.50;98.80
15930;DHT22;8064;51.142;4.780;2022-08-21T03:47:14;14.50;98.80
15930;DHT22;8064;51.142;4.780;2022-08-21T03:49:40;14.50;98.80
15930;DHT22;8064;51.142;4.780;2022-08-21T03:52:07;14.50;98.90
15930;DHT22;8064;51.142;4.780;2022-08-21T03:54:32;14.40;98.90
15930;DHT22;8064;51.142;4.780;2022-08-21T03:56:58;14.40;98.90
15930;DHT22;8064;51.142;4.780;2022-08-21T03:59:24;14.40;99.00
15930;DHT22;8064;51.142;4.780;2022-08-21T04:01:53;14.40;99.00
15930;DHT22;8064;51.142;4.780;2022-08-21T04:04:20;14.30;99.10
15930;DHT22;8064;51.142;4.780;2022-08-21T04:06:46;14.30;99.10
15930;DHT22;8064;51.142;4.780;2022-08-21T04:09:11;14.30;99.10
15930;DHT22;8064;51.142;4.780;2022-08-21T04:11:37;14.30;99.20
15930;DHT22;8064;51.142;4.780;2022-08-21T04:14:03;14.30;99.20
15930;DHT22;8064;51.142;4.780;2022-08-21T04:16:30;14.20;99.20
15930;DHT22;8064;51.142;4.780;2022-08-21T04:18:56;14.20;99.60
15930;DHT22;8064;51.142;4.780;2022-08-21T04:21:22;14.20;99.30
15930;DHT22;8064;51.142;4.780;2022-08-21T04:23:49;14.20;99.20
15930;DHT22;8064;51.142;4.780;2022-08-21T04:26:14;14.20;99.20
15930;DHT22;8064;51.142;4.780;2022-08-21T04:28:40;14.20;99.30
15930;DHT22;8064;51.142;4.780;2022-08-21T04:31:08;14.20;99.30
15930;DHT22;8064;51.142;4.780;2022-08-21T04:33:34;14.20;99.30
15930;DHT22;8064;51.142;4.780;2022-08-21T04:36:00;14.20;99.30
15930;DHT22;8064;51.142;4.780;2022-08-21T04:38:27;14.20;99.30
15930;DHT22;8064;51.142;4.780;2022-08-21T04:40:53;14.20;99.30
15930;DHT22;8064;51.142;4.780;2022-08-21T04:43:19;14.20;99.40
15930;DHT22;8064;51.142;4.780;2022-08-21T04:45:48;14.20;99.50
15930;DHT22;8064;51.142;4.780;2022-08-21T04:48:18;14.20;99.50
15930;DHT22;8064;51.142;4.780;2022-08-21T04:53:20;14.20;99.60
15930;DHT22;8064;51.142;4.780;2022-08-21T04:55:47;14.20;99.60
15930;DHT22;8064;51.142;4.780;2022-08-21T04:58:16;14.20;99.60
15930;DHT22;8064;51.142;4.780;2022-08-21T05:00:43;14.20;99.70
15930;DHT22;8064;51.142;4.780;2022-08-21T05:03:11;14.20;99.70
15930;DHT22;8064;51.142;4.780;2022-08-21T05:05:37;14.30;99.80
15930;DHT22;8064;51.142;4.780;2022-08-21T05:08:04;14.30;99.80
15930;DHT22;8064;51.142;4.780;2022-08-21T05:10:32;14.30;99.80
15930;DHT22;8064;51.142;4.780;2022-08-21T05:12:59;14.40;99.90
15930;DHT22;8064;51.142;4.780;2022-08-21T05:15:26;14.40;99.90
15930;DHT22;8064;51.142;4.780;2022-08-21T05:17:51;14.40;99.90
15930;DHT22;8064;51.142;4.780;2022-08-21T05:20:18;14.50;99.90
15930;DHT22;8064;51.142;4.780;2022-08-21T05:22:45;14.60;99.90
15930;DHT22;8064;51.142;4.780;2022-08-21T05:25:11;14.60;99.90
15930;DHT22;8064;51.142;4.780;2022-08-21T05:27:38;14.70;99.90
15930;DHT22;8064;51.142;4.780;2022-08-21T05:30:06;14.80;99.90
15930;DHT22;8064;51.142;4.780;2022-08-21T05:32:33;14.80;99.90
15930;DHT22;8064;51.142;4.780;2022-08-21T05:34:59;14.90;99.90
15930;DHT22;8064;51.142;4.780;2022-08-21T05:37:25;15.00;99.90
15930;DHT22;8064;51.142;4.780;2022-08-21T05:39:50;15.10;99.90
15930;DHT22;8064;51.142;4.780;2022-08-21T05:42:16;15.10;99.90
15930;DHT22;8064;51.142;4.780;2022-08-21T05:44:42;15.20;99.90
15930;DHT22;8064;51.142;4.780;2022-08-21T05:47:09;15.30;99.90
15930;DHT22;8064;51.142;4.780;2022-08-21T05:49:36;15.30;99.90
15930;DHT22;8064;51.142;4.780;2022-08-21T05:52:03;15.40;99.90
15930;DHT22;8064;51.142;4.780;2022-08-21T05:54:29;15.40;99.90
15930;DHT22;8064;51.142;4.780;2022-08-21T05:56:56;15.50;99.90
15930;DHT22;8064;51.142;4.780;2022-08-21T05:59:22;15.60;99.90
15930;DHT22;8064;51.142;4.780;2022-08-21T06:01:48;15.60;99.90
15930;DHT22;8064;51.142;4.780;2022-08-21T06:04:14;15.70;99.90
15930;DHT22;8064;51.142;4.780;2022-08-21T06:06:41;15.80;99.90
15930;DHT22;8064;51.142;4.780;2022-08-21T06:09:07;15.90;99.90
15930;DHT22;8064;51.142;4.780;2022-08-21T06:11:33;16.00;99.90
15930;DHT22;8064;51.142;4.780;2022-08-21T06:14:00;16.10;99.90
15930;DHT22;8064;51.142;4.780;2022-08-21T06:16:27;16.30;99.90
15930;DHT22;8064;51.142;4.780;2022-08-21T06:18:53;16.40;99.90
15930;DHT22;8064;51.142;4.780;2022-08-21T06:21:19;16.50;99.90
15930;DHT22;8064;51.142;4.780;2022-08-21T06:23:45;16.70;99.90
15930;DHT22;8064;51.142;4.780;2022-08-21T06:26:12;16.80;99.90
15930;DHT22;8064;51.142;4.780;2022-08-21T06:28:39;17.00;99.80
15930;DHT22;8064;51.142;4.780;2022-08-21T06:31:19;17.10;99.80
15930;DHT22;8064;51.142;4.780;2022-08-21T06:33:45;17.30;99.70
15930;DHT22;8064;51.142;4.780;2022-08-21T06:36:11;17.40;99.60
15930;DHT22;8064;51.142;4.780;2022-08-21T06:38:37;17.60;99.50
15930;DHT22;8064;51.142;4.780;2022-08-21T06:41:04;17.70;99.80
15930;DHT22;8064;51.142;4.780;2022-08-21T06:43:30;17.80;99.40
15930;DHT22;8064;51.142;4.780;2022-08-21T06:45:56;18.10;99.40
15930;DHT22;8064;51.142;4.780;2022-08-21T06:48:22;18.30;99.30
15930;DHT22;8064;51.142;4.780;2022-08-21T06:50:48;18.40;99.20
15930;DHT22;8064;51.142;4.780;2022-08-21T06:53:17;18.60;99.10
15930;DHT22;8064;51.142;4.780;2022-08-21T06:55:43;18.80;98.90
15930;DHT22;8064;51.142;4.780;2022-08-21T06:58:10;19.00;98.80
15930;DHT22;8064;51.142;4.780;2022-08-21T07:00:39;19.20;98.60
15930;DHT22;8064;51.142;4.780;2022-08-21T07:03:05;19.40;98.50
15930;DHT22;8064;51.142;4.780;2022-08-21T07:05:31;19.70;98.30
15930;DHT22;8064;51.142;4.780;2022-08-21T07:07:57;19.80;98.10
15930;DHT22;8064;51.142;4.780;2022-08-21T07:10:24;20.00;97.90
15930;DHT22;8064;51.142;4.780;2022-08-21T07:12:51;20.10;97.60
15930;DHT22;8064;51.142;4.780;2022-08-21T07:15:18;20.20;97.50
15930;DHT22;8064;51.142;4.780;2022-08-21T07:17:43;20.20;97.30
15930;DHT22;8064;51.142;4.780;2022-08-21T07:20:09;20.30;97.20
15930;DHT22;8064;51.142;4.780;2022-08-21T07:22:37;20.40;97.20
15930;DHT22;8064;51.142;4.780;2022-08-21T07:25:05;20.50;97.30
15930;DHT22;8064;51.142;4.780;2022-08-21T07:27:31;20.60;97.00
15930;DHT22;8064;51.142;4.780;2022-08-21T07:29:57;20.80;96.80
15930;DHT22;8064;51.142;4.780;2022-08-21T07:32:24;20.90;96.60
15930;DHT22;8064;51.142;4.780;2022-08-21T07:34:50;21.10;96.50
15930;DHT22;8064;51.142;4.780;2022-08-21T07:37:15;21.20;96.20
15930;DHT22;8064;51.142;4.780;2022-08-21T07:39:41;21.40;96.10
15930;DHT22;8064;51.142;4.780;2022-08-21T07:42:07;21.50;95.90
15930;DHT22;8064;51.142;4.780;2022-08-21T07:44:33;21.60;95.70
15930;DHT22;8064;51.142;4.780;2022-08-21T07:47:01;21.70;95.50
15930;DHT22;8064;51.142;4.780;2022-08-21T07:49:27;21.80;95.30
15930;DHT22;8064;51.142;4.780;2022-08-21T07:51:53;21.90;95.10
15930;DHT22;8064;51.142;4.780;2022-08-21T07:54:18;22.10;95.00
15930;DHT22;8064;51.142;4.780;2022-08-21T07:56:44;22.20;94.90
15930;DHT22;8064;51.142;4.780;2022-08-21T07:59:11;22.30;94.80
15930;DHT22;8064;51.142;4.780;2022-08-21T08:01:37;22.50;94.70
15930;DHT22;8064;51.142;4.780;2022-08-21T08:04:04;22.60;94.60
15930;DHT22;8064;51.142;4.780;2022-08-21T08:06:30;22.80;94.50
15930;DHT22;8064;51.142;4.780;2022-08-21T08:08:56;23.00;94.10
15930;DHT22;8064;51.142;4.780;2022-08-21T08:11:24;23.20;93.80
15930;DHT22;8064;51.142;4.780;2022-08-21T08:13:52;23.30;93.50
15930;DHT22;8064;51.142;4.780;2022-08-21T08:16:18;23.50;93.20
15930;DHT22;8064;51.142;4.780;2022-08-21T08:18:45;23.60;93.10
15930;DHT22;8064;51.142;4.780;2022-08-21T08:21:12;23.70;92.80
15930;DHT22;8064;51.142;4.780;2022-08-21T08:23:38;23.70;92.60
15930;DHT22;8064;51.142;4.780;2022-08-21T08:26:05;23.80;92.40
15930;DHT22;8064;51.142;4.780;2022-08-21T08:28:32;23.70;92.50
15930;DHT22;8064;51.142;4.780;2022-08-21T08:31:00;23.60;92.10
15930;DHT22;8064;51.142;4.780;2022-08-21T08:33:27;23.60;92.10
15930;DHT22;8064;51.142;4.780;2022-08-21T08:35:53;23.70;92.20
15930;DHT22;8064;51.142;4.780;2022-08-21T08:38:21;23.80;92.00
15930;DHT22;8064;51.142;4.780;2022-08-21T08:41:07;23.80;92.00
15930;DHT22;8064;51.142;4.780;2022-08-21T08:43:37;24.00;91.80
15930;DHT22;8064;51.142;4.780;2022-08-21T08:46:09;24.10;91.70
15930;DHT22;8064;51.142;4.780;2022-08-21T08:48:51;24.10;91.20
15930;DHT22;8064;51.142;4.780;2022-08-21T08:51:23;24.10;90.90
15930;DHT22;8064;51.142;4.780;2022-08-21T08:53:59;24.10;91.00
15930;DHT22;8064;51.142;4.780;2022-08-21T08:56:30;24.10;90.60
15930;DHT22;8064;51.142;4.780;2022-08-21T08:59:01;24.10;90.70
15930;DHT22;8064;51.142;4.780;2022-08-21T09:01:27;24.20;91.00
15930;DHT22;8064;51.142;4.780;2022-08-21T09:03:53;24.30;91.00
15930;DHT22;8064;51.142;4.780;2022-08-21T09:06:33;24.50;90.90
15930;DHT22;8064;51.142;4.780;2022-08-21T09:09:23;24.70;90.50
15930;DHT22;8064;51.142;4.780;2022-08-21T09:17:40;25.50;87.50
15930;DHT22;8064;51.142;4.780;2022-08-21T09:20:16;25.60;86.70
15930;DHT22;8064;51.142;4.780;2022-08-21T09:26:05;25.70;86.60
15930;DHT22;8064;51.142;4.780;2022-08-21T09:28:34;25.80;87.10
15930;DHT22;8064;51.142;4.780;2022-08-21T09:31:05;25.90;87.00
15930;DHT22;8064;51.142;4.780;2022-08-21T09:33:31;25.90;86.20
15930;DHT22;8064;51.142;4.780;2022-08-21T09:35:57;25.90;85.20
15930;DHT22;8064;51.142;4.780;2022-08-21T09:38:26;25.90;85.00
15930;DHT22;8064;51.142;4.780;2022-08-21T09:40:59;25.80;83.90
15930;DHT22;8064;51.142;4.780;2022-08-21T09:43:26;25.70;83.00
15930;DHT22;8064;51.142;4.780;2022-08-21T09:48:53;25.60;81.90
15930;DHT22;8064;51.142;4.780;2022-08-21T09:51:25;25.80;83.00
15930;DHT22;8064;51.142;4.780;2022-08-21T09:56:36;26.40;82.80
15930;DHT22;8064;51.142;4.780;2022-08-21T09:59:34;26.70;81.50
15930;DHT22;8064;51.142;4.780;2022-08-21T10:02:03;26.90;81.20
15930;DHT22;8064;51.142;4.780;2022-08-21T10:04:32;27.00;80.60
15930;DHT22;8064;51.142;4.780;2022-08-21T10:07:19;27.00;80.30
15930;DHT22;8064;51.142;4.780;2022-08-21T10:09:45;26.80;78.30
15930;DHT22;8064;51.142;4.780;2022-08-21T10:12:15;26.50;79.20
15930;DHT22;8064;51.142;4.780;2022-08-21T10:18:19;26.10;81.10
15930;DHT22;8064;51.142;4.780;2022-08-21T10:21:09;26.00;82.10
15930;DHT22;8064;51.142;4.780;2022-08-21T10:26:59;25.80;81.30
15930;DHT22;8064;51.142;4.780;2022-08-21T10:41:14;25.80;80.40
15930;DHT22;8064;51.142;4.780;2022-08-21T10:50:07;26.00;81.50
15930;DHT22;8064;51.142;4.780;2022-08-21T10:55:27;26.30;80.50
15930;DHT22;8064;51.142;4.780;2022-08-21T10:58:18;26.40;80.20
15930;DHT22;8064;51.142;4.780;2022-08-21T11:00:48;26.40;78.50
15930;DHT22;8064;51.142;4.780;2022-08-21T11:03:23;26.40;78.50
15930;DHT22;8064;51.142;4.780;2022-08-21T11:05:54;26.60;79.00
15930;DHT22;8064;51.142;4.780;2022-08-21T11:11:46;26.70;78.00
15930;DHT22;8064;51.142;4.780;2022-08-21T11:17:13;26.60;78.50
15930;DHT22;8064;51.142;4.780;2022-08-21T11:20:04;26.90;78.40
15930;DHT22;8064;51.142;4.780;2022-08-21T11:22:40;27.10;77.60
15930;DHT22;8064;51.142;4.780;2022-08-21T11:28:11;27.30;75.90
15930;DHT22;8064;51.142;4.780;2022-08-21T11:33:48;27.30;74.70
15930;DHT22;8064;51.142;4.780;2022-08-21T11:42:23;27.30;75.10
15930;DHT22;8064;51.142;4.780;2022-08-21T11:45:12;27.30;75.10
15930;DHT22;8064;51.142;4.780;2022-08-21T11:50:18;27.30;75.70
15930;DHT22;8064;51.142;4.780;2022-08-21T11:52:53;27.20;75.50
15930;DHT22;8064;51.142;4.780;2022-08-21T11:55:33;27.10;75.70
15930;DHT22;8064;51.142;4.780;2022-08-21T11:58:06;27.00;75.90
15930;DHT22;8064;51.142;4.780;2022-08-21T12:00:36;27.00;74.60
15930;DHT22;8064;51.142;4.780;2022-08-21T12:06:08;26.90;75.20
15930;DHT22;8064;51.142;4.780;2022-08-21T12:08:37;27.00;75.30
15930;DHT22;8064;51.142;4.780;2022-08-21T12:11:09;27.00;75.20
15930;DHT22;8064;51.142;4.780;2022-08-21T12:13:55;27.00;75.10
15930;DHT22;8064;51.142;4.780;2022-08-21T12:16:42;27.00;73.80
15930;DHT22;8064;51.142;4.780;2022-08-21T12:21:53;26.70;73.70
15930;DHT22;8064;51.142;4.780;2022-08-21T12:24:33;26.70;73.30
15930;DHT22;8064;51.142;4.780;2022-08-21T12:27:21;26.70;72.30
15930;DHT22;8064;51.142;4.780;2022-08-21T12:29:54;26.70;72.70
15930;DHT22;8064;51.142;4.780;2022-08-21T12:35:23;26.80;73.60
15930;DHT22;8064;51.142;4.780;2022-08-21T12:40:55;26.80;73.10
15930;DHT22;8064;51.142;4.780;2022-08-21T12:46:30;26.70;74.00
15930;DHT22;8064;51.142;4.780;2022-08-21T12:49:02;26.70;73.50
15930;DHT22;8064;51.142;4.780;2022-08-21T12:51:34;26.60;74.00
15930;DHT22;8064;51.142;4.780;2022-08-21T12:54:03;26.70;74.50
15930;DHT22;8064;51.142;4.780;2022-08-21T12:56:34;26.70;74.30
15930;DHT22;8064;51.142;4.780;2022-08-21T12:59:04;26.70;74.50
15930;DHT22;8064;51.142;4.780;2022-08-21T13:01:45;26.60;73.70
15930;DHT22;8064;51.142;4.780;2022-08-21T13:04:16;26.60;71.90
15930;DHT22;8064;51.142;4.780;2022-08-21T13:06:48;26.50;71.80
15930;DHT22;8064;51.142;4.780;2022-08-21T13:09:18;26.40;72.00
15930;DHT22;8064;51.142;4.780;2022-08-21T13:11:47;26.30;71.80
15930;DHT22;8064;51.142;4.780;2022-08-21T13:14:36;26.20;71.80
15930;DHT22;8064;51.142;4.780;2022-08-21T13:17:04;26.00;71.20
15930;DHT22;8064;51.142;4.780;2022-08-21T13:19:31;25.80;71.80
15930;DHT22;8064;51.142;4.780;2022-08-21T13:21:57;25.80;72.90
15930;DHT22;8064;51.142;4.780;2022-08-21T13:24:27;25.70;73.80
15930;DHT22;8064;51.142;4.780;2022-08-21T13:26:55;25.70;74.60
15930;DHT22;8064;51.142;4.780;2022-08-21T13:29:28;25.80;74.40
15930;DHT22;8064;51.142;4.780;2022-08-21T13:31:57;25.70;74.20
15930;DHT22;8064;51.142;4.780;2022-08-21T13:34:38;25.70;74.10
15930;DHT22;8064;51.142;4.780;2022-08-21T13:37:07;25.80;73.90
15930;DHT22;8064;51.142;4.780;2022-08-21T13:39:34;25.80;74.40
15930;DHT22;8064;51.142;4.780;2022-08-21T13:42:03;25.80;74.80
15930;DHT22;8064;51.142;4.780;2022-08-21T13:44:34;25.90;74.80
15930;DHT22;8064;51.142;4.780;2022-08-21T13:47:02;25.90;73.90
15930;DHT22;8064;51.142;4.780;2022-08-21T13:49:34;26.00;73.30
15930;DHT22;8064;51.142;4.780;2022-08-21T13:52:00;26.00;72.30
15930;DHT22;8064;51.142;4.780;2022-08-21T13:54:38;26.10;71.90
15930;DHT22;8064;51.142;4.780;2022-08-21T13:57:17;26.00;71.20
15930;DHT22;8064;51.142;4.780;2022-08-21T13:59:43;26.00;71.60
15930;DHT22;8064;51.142;4.780;2022-08-21T14:04:44;25.90;71.90
15930;DHT22;8064;51.142;4.780;2022-08-21T14:07:17;25.90;70.50
15930;DHT22;8064;51.142;4.780;2022-08-21T14:09:45;26.00;70.00
15930;DHT22;8064;51.142;4.780;2022-08-21T14:15:17;26.10;68.20
15930;DHT22;8064;51.142;4.780;2022-08-21T14:17:44;26.20;69.30
15930;DHT22;8064;51.142;4.780;2022-08-21T14:20:13;26.30;70.20
15930;DHT22;8064;51.142;4.780;2022-08-21T14:22:53;26.30;69.40
15930;DHT22;8064;51.142;4.780;2022-08-21T14:25:41;26.30;69.90
15930;DHT22;8064;51.142;4.780;2022-08-21T14:28:28;26.40;70.30
15930;DHT22;8064;51.142;4.780;2022-08-21T14:30:56;26.40;68.90
15930;DHT22;8064;51.142;4.780;2022-08-21T14:33:28;26.40;68.30
15930;DHT22;8064;51.142;4.780;2022-08-21T14:35:54;26.40;69.20
15930;DHT22;8064;51.142;4.780;2022-08-21T14:38:23;26.40;70.20
15930;DHT22;8064;51.142;4.780;2022-08-21T14:40:53;26.50;70.80
15930;DHT22;8064;51.142;4.780;2022-08-21T14:43:20;26.60;70.80
15930;DHT22;8064;51.142;4.780;2022-08-21T14:45:46;26.60;69.70
15930;DHT22;8064;51.142;4.780;2022-08-21T14:48:12;26.60;69.00
15930;DHT22;8064;51.142;4.780;2022-08-21T14:50:39;26.70;68.90
15930;DHT22;8064;51.142;4.780;2022-08-21T14:53:05;26.70;68.40
15930;DHT22;8064;51.142;4.780;2022-08-21T14:55:32;26.70;68.40
15930;DHT22;8064;51.142;4.780;2022-08-21T14:58:13;26.60;68.60
15930;DHT22;8064;51.142;4.780;2022-08-21T15:00:39;26.60;69.40
15930;DHT22;8064;51.142;4.780;2022-08-21T15:03:05;26.50;70.40
15930;DHT22;8064;51.142;4.780;2022-08-21T15:05:30;26.50;71.20
15930;DHT22;8064;51.142;4.780;2022-08-21T15:07:56;26.40;71.40
15930;DHT22;8064;51.142;4.780;2022-08-21T15:10:23;26.40;71.60
15930;DHT22;8064;51.142;4.780;2022-08-21T15:12:49;26.30;71.60
15930;DHT22;8064;51.142;4.780;2022-08-21T15:15:14;26.30;71.80
15930;DHT22;8064;51.142;4.780;2022-08-21T15:17:40;26.20;71.80
15930;DHT22;8064;51.142;4.780;2022-08-21T15:20:07;26.10;72.10
15930;DHT22;8064;51.142;4.780;2022-08-21T15:22:34;26.10;72.60
15930;DHT22;8064;51.142;4.780;2022-08-21T15:25:01;26.00;72.80
15930;DHT22;8064;51.142;4.780;2022-08-21T15:27:27;25.90;72.80
15930;DHT22;8064;51.142;4.780;2022-08-21T15:29:53;25.80;72.90
15930;DHT22;8064;51.142;4.780;2022-08-21T15:32:23;25.70;73.40
15930;DHT22;8064;51.142;4.780;2022-08-21T15:34:50;25.60;73.50
15930;DHT22;8064;51.142;4.780;2022-08-21T15:37:16;25.50;74.10
15930;DHT22;8064;51.142;4.780;2022-08-21T15:39:42;25.40;74.60
15930;DHT22;8064;51.142;4.780;2022-08-21T15:42:09;25.40;75.30
15930;DHT22;8064;51.142;4.780;2022-08-21T15:44:36;25.30;75.90
15930;DHT22;8064;51.142;4.780;2022-08-21T15:47:11;25.20;77.00
15930;DHT22;8064;51.142;4.780;2022-08-21T15:49:38;25.10;76.30
15930;DHT22;8064;51.142;4.780;2022-08-21T15:52:03;25.10;76.30
15930;DHT22;8064;51.142;4.780;2022-08-21T15:54:29;25.10;76.30
15930;DHT22;8064;51.142;4.780;2022-08-21T15:56:55;25.00;76.50
15930;DHT22;8064;51.142;4.780;2022-08-21T15:59:21;25.00;76.70
15930;DHT22;8064;51.142;4.780;2022-08-21T16:01:49;25.00;77.00
15930;DHT22;8064;51.142;4.780;2022-08-21T16:04:22;25.00;77.10
15930;DHT22;8064;51.142;4.780;2022-08-21T16:06:48;25.00;77.50
15930;DHT22;8064;51.142;4.780;2022-08-21T16:09:14;25.00;77.90
15930;DHT22;8064;51.142;4.780;2022-08-21T16:11:41;25.00;78.40
15930;DHT22;8064;51.142;4.780;2022-08-21T16:14:07;25.00;78.50
15930;DHT22;8064;51.142;4.780;2022-08-21T16:16:34;25.00;78.50
15930;DHT22;8064;51.142;4.780;2022-08-21T16:19:02;24.90;78.40
15930;DHT22;8064;51.142;4.780;2022-08-21T16:21:29;24.90;78.60
15930;DHT22;8064;51.142;4.780;2022-08-21T16:23:54;24.90;79.00
15930;DHT22;8064;51.142;4.780;2022-08-21T16:26:20;24.90;79.10
15930;DHT22;8064;51.142;4.780;2022-08-21T16:28:48;24.80;79.10
15930;DHT22;8064;51.142;4.780;2022-08-21T16:31:14;24.90;79.20
15930;DHT22;8064;51.142;4.780;2022-08-21T16:33:43;24.80;79.70
15930;DHT22;8064;51.142;4.780;2022-08-21T16:36:11;24.80;78.90
15930;DHT22;8064;51.142;4.780;2022-08-21T16:38:38;24.80;79.30
15930;DHT22;8064;51.142;4.780;2022-08-21T16:41:09;24.70;79.30
15930;DHT22;8064;51.142;4.780;2022-08-21T16:43:37;24.80;79.20
15930;DHT22;8064;51.142;4.780;2022-08-21T16:46:03;24.70;79.40
15930;DHT22;8064;51.142;4.780;2022-08-21T16:48:29;24.60;79.90
15930;DHT22;8064;51.142;4.780;2022-08-21T16:50:56;24.70;80.30
15930;DHT22;8064;51.142;4.780;2022-08-21T16:53:22;24.60;80.60
15930;DHT22;8064;51.142;4.780;2022-08-21T16:55:50;24.50;80.80
15930;DHT22;8064;51.142;4.780;2022-08-21T16:58:22;24.50;80.40
15930;DHT22;8064;51.142;4.780;2022-08-21T17:00:50;24.40;80.20
15930;DHT22;8064;51.142;4.780;2022-08-21T17:03:18;24.40;80.20
15930;DHT22;8064;51.142;4.780;2022-08-21T17:05:46;24.40;80.50
15930;DHT22;8064;51.142;4.780;2022-08-21T17:08:12;24.30;81.00
15930;DHT22;8064;51.142;4.780;2022-08-21T17:10:47;24.20;81.30
15930;DHT22;8064;51.142;4.780;2022-08-21T17:13:13;24.10;81.90
15930;DHT22;8064;51.142;4.780;2022-08-21T17:15:39;24.10;82.30
15930;DHT22;8064;51.142;4.780;2022-08-21T17:18:09;24.00;82.60
15930;DHT22;8064;51.142;4.780;2022-08-21T17:20:36;24.00;83.20